sensor_id;sensor_type;location;lat;lon;timestamp;P1;durP1;ratioP1;P2;durP2;ratioP2
74064;SDS011;62421;51.412;5.432;2023-04-03T00:00:22;11.13;;;5.97;;
74064;SDS011;62421;51.412;5.432;2023-04-03T00:02:47;11.48;;;5.10;;
74064;SDS011;62421;51.412;5.432;2023-04-03T00:05:13;10.73;;;6.43;;
74064;SDS011;62421;51.412;5.432;2023-04-03T00:07:38;9.87;;;5.37;;
74064;SDS011;62421;51.412;5.432;2023-04-03T00:10:04;12.17;;;6.00;;
74064;SDS011;62421;51.412;5.432;2023-04-03T00:12:30;8.88;;;5.10;;
74064;SDS011;62421;51.412;5.432;2023-04-03T00:14:55;8.00;;;4.80;;
74064;SDS011;62421;51.412;5.432;2023-04-03T00:17:20;11.90;;;5.53;;
74064;SDS011;62421;51.412;5.432;2023-04-03T00:19:46;11.70;;;5.97;;
74064;SDS011;62421;51.412;5.432;2023-04-03T00:22:11;9.67;;;5.63;;
74064;SDS011;62421;51.412;5.432;2023-04-03T00:24:37;10.68;;;6.07;;
74064;SDS011;62421;51.412;5.432;2023-04-03T00:27:02;8.00;;;5.28;;
74064;SDS011;62421;51.412;5.432;2023-04-03T00:29:27;12.70;;;4.87;;
74064;SDS011;62421;51.412;5.432;2023-04-03T00:31:53;10.17;;;5.53;;
74064;SDS011;62421;51.412;5.432;2023-04-03T00:34:18;8.67;;;5.17;;
74064;SDS011;62421;51.412;5.432;2023-04-03T00:36:44;10.00;;;5.75;;
74064;SDS011;62421;51.412;5.432;2023-04-03T00:39:10;10.40;;;5.73;;
74064;SDS011;62421;51.412;5.432;2023-04-03T00:41:35;14.00;;;5.30;;
74064;SDS011;62421;51.412;5.432;2023-04-03T00:44:16;8.93;;;5.57;;
74064;SDS011;62421;51.412;5.432;2023-04-03T00:46:44;10.70;;;4.85;;
74064;SDS011;62421;51.412;5.432;2023-04-03T00:49:09;10.60;;;4.80;;
74064;SDS011;62421;51.412;5.432;2023-04-03T00:51:35;13.63;;;5.97;;
74064;SDS011;62421;51.412;5.432;2023-04-03T00:54:01;10.80;;;5.17;;
74064;SDS011;62421;51.412;5.432;2023-04-03T00:56:30;10.07;;;5.95;;
74064;SDS011;62421;51.412;5.432;2023-04-03T00:59:01;10.68;;;5.95;;
74064;SDS011;62421;51.412;5.432;2023-04-03T01:01:48;9.90;;;5.72;;
74064;SDS011;62421;51.412;5.432;2023-04-03T01:04:26;9.73;;;5.20;;
74064;SDS011;62421;51.412;5.432;2023-04-03T01:06:52;9.38;;;5.38;;
74064;SDS011;62421;51.412;5.432;2023-04-03T01:09:20;10.70;;;5.63;;
74064;SDS011;62421;51.412;5.432;2023-04-03T01:11:46;8.80;;;5.27;;
74064;SDS011;62421;51.412;5.432;2023-04-03T01:14:12;11.68;;;6.20;;
74064;SDS011;62421;51.412;5.432;2023-04-03T01:16:37;11.23;;;5.87;;
74064;SDS011;62421;51.412;5.432;2023-04-03T01:19:03;10.10;;;5.40;;
74064;SDS011;62421;51.412;5.432;2023-04-03T01:21:47;14.10;;;5.95;;
74064;SDS011;62421;51.412;5.432;2023-04-03T01:24:36;11.35;;;5.63;;
74064;SDS011;62421;51.412;5.432;2023-04-03T01:27:06;11.30;;;6.18;;
74064;SDS011;62421;51.412;5.432;2023-04-03T01:29:35;14.65;;;5.88;;
74064;SDS011;62421;51.412;5.432;2023-04-03T01:32:02;9.13;;;5.72;;
74064;SDS011;62421;51.412;5.432;2023-04-03T01:34:28;11.65;;;6.40;;
74064;SDS011;62421;51.412;5.432;2023-04-03T01:36:55;9.17;;;4.97;;
74064;SDS011;62421;51.412;5.432;2023-04-03T01:39:20;9.10;;;5.50;;
74064;SDS011;62421;51.412;5.432;2023-04-03T01:41:46;11.93;;;5.60;;
74064;SDS011;62421;51.412;5.432;2023-04-03T01:44:12;11.23;;;5.80;;
74064;SDS011;62421;51.412;5.432;2023-04-03T01:46:37;10.17;;;6.07;;
74064;SDS011;62421;51.412;5.432;2023-04-03T01:49:03;13.00;;;5.47;;
74064;SDS011;62421;51.412;5.432;2023-04-03T01:51:29;10.52;;;5.85;;
74064;SDS011;62421;51.412;5.432;2023-04-03T01:53:55;10.65;;;5.55;;
74064;SDS011;62421;51.412;5.432;2023-04-03T01:56:21;11.70;;;5.87;;
74064;SDS011;62421;51.412;5.432;2023-04-03T01:58:47;11.45;;;6.28;;
74064;SDS011;62421;51.412;5.432;2023-04-03T02:01:12;13.40;;;6.33;;
74064;SDS011;62421;51.412;5.432;2023-04-03T02:03:37;9.73;;;5.33;;
74064;SDS011;62421;51.412;5.432;2023-04-03T02:06:03;9.23;;;5.80;;
74064;SDS011;62421;51.412;5.432;2023-04-03T02:08:28;9.60;;;5.57;;
74064;SDS011;62421;51.412;5.432;2023-04-03T02:10:54;9.25;;;5.60;;
74064;SDS011;62421;51.412;5.432;2023-04-03T02:13:19;11.77;;;5.77;;
74064;SDS011;62421;51.412;5.432;2023-04-03T02:15:45;8.77;;;5.72;;
74064;SDS011;62421;51.412;5.432;2023-04-03T02:18:11;12.50;;;5.55;;
74064;SDS011;62421;51.412;5.432;2023-04-03T02:20:37;11.13;;;6.10;;
74064;SDS011;62421;51.412;5.432;2023-04-03T02:23:03;10.20;;;6.03;;
74064;SDS011;62421;51.412;5.432;2023-04-03T02:25:30;11.23;;;6.40;;
74064;SDS011;62421;51.412;5.432;2023-04-03T02:27:56;10.88;;;6.70;;
74064;SDS011;62421;51.412;5.432;2023-04-03T02:30:22;10.10;;;5.93;;
74064;SDS011;62421;51.412;5.432;2023-04-03T02:32:47;10.23;;;6.53;;
74064;SDS011;62421;51.412;5.432;2023-04-03T02:35:13;10.17;;;6.30;;
74064;SDS011;62421;51.412;5.432;2023-04-03T02:37:38;10.67;;;6.10;;
74064;SDS011;62421;51.412;5.432;2023-04-03T02:40:04;16.40;;;7.30;;
74064;SDS011;62421;51.412;5.432;2023-04-03T02:42:31;12.27;;;6.43;;
74064;SDS011;62421;51.412;5.432;2023-04-03T02:44:56;9.13;;;6.13;;
74064;SDS011;62421;51.412;5.432;2023-04-03T02:47:21;11.87;;;6.93;;
74064;SDS011;62421;51.412;5.432;2023-04-03T02:49:47;12.27;;;7.43;;
74064;SDS011;62421;51.412;5.432;2023-04-03T02:52:13;12.68;;;6.60;;
74064;SDS011;62421;51.412;5.432;2023-04-03T02:54:38;10.05;;;6.63;;
74064;SDS011;62421;51.412;5.432;2023-04-03T02:57:04;9.93;;;6.03;;
74064;SDS011;62421;51.412;5.432;2023-04-03T02:59:29;11.70;;;5.87;;
74064;SDS011;62421;51.412;5.432;2023-04-03T03:01:55;14.77;;;7.20;;
74064;SDS011;62421;51.412;5.432;2023-04-03T03:04:21;12.80;;;7.22;;
74064;SDS011;62421;51.412;5.432;2023-04-03T03:06:46;9.67;;;5.80;;
74064;SDS011;62421;51.412;5.432;2023-04-03T03:09:12;9.10;;;5.47;;
74064;SDS011;62421;51.412;5.432;2023-04-03T03:11:38;15.50;;;6.05;;
74064;SDS011;62421;51.412;5.432;2023-04-03T03:14:03;12.73;;;6.13;;
74064;SDS011;62421;51.412;5.432;2023-04-03T03:16:29;13.80;;;6.00;;
74064;SDS011;62421;51.412;5.432;2023-04-03T03:18:54;13.33;;;6.10;;
74064;SDS011;62421;51.412;5.432;2023-04-03T03:21:20;8.80;;;5.90;;
74064;SDS011;62421;51.412;5.432;2023-04-03T03:23:45;11.40;;;6.33;;
74064;SDS011;62421;51.412;5.432;2023-04-03T03:26:11;13.17;;;6.43;;
74064;SDS011;62421;51.412;5.432;2023-04-03T03:28:36;13.07;;;5.90;;
74064;SDS011;62421;51.412;5.432;2023-04-03T03:31:03;11.25;;;5.38;;
74064;SDS011;62421;51.412;5.432;2023-04-03T03:33:29;10.48;;;5.97;;
74064;SDS011;62421;51.412;5.432;2023-04-03T03:35:54;10.73;;;5.57;;
74064;SDS011;62421;51.412;5.432;2023-04-03T03:38:20;10.85;;;6.25;;
74064;SDS011;62421;51.412;5.432;2023-04-03T03:40:49;11.25;;;5.22;;
74064;SDS011;62421;51.412;5.432;2023-04-03T03:43:15;10.87;;;5.30;;
74064;SDS011;62421;51.412;5.432;2023-04-03T03:45:41;16.27;;;5.85;;
74064;SDS011;62421;51.412;5.432;2023-04-03T03:48:07;12.00;;;5.82;;
74064;SDS011;62421;51.412;5.432;2023-04-03T03:50:32;10.17;;;5.47;;
74064;SDS011;62421;51.412;5.432;2023-04-03T03:52:58;14.87;;;6.20;;
74064;SDS011;62421;51.412;5.432;2023-04-03T03:55:23;12.70;;;6.50;;
74064;SDS011;62421;51.412;5.432;2023-04-03T03:57:49;8.80;;;5.57;;
74064;SDS011;62421;51.412;5.432;2023-04-03T04:00:15;11.40;;;5.83;;
74064;SDS011;62421;51.412;5.432;2023-04-03T04:02:41;10.97;;;6.00;;
74064;SDS011;62421;51.412;5.432;2023-04-03T04:05:06;11.88;;;5.50;;
74064;SDS011;62421;51.412;5.432;2023-04-03T04:07:32;11.20;;;6.00;;
74064;SDS011;62421;51.412;5.432;2023-04-03T04:09:57;14.23;;;6.53;;
74064;SDS011;62421;51.412;5.432;2023-04-03T04:12:22;16.50;;;5.97;;
74064;SDS011;62421;51.412;5.432;2023-04-03T04:14:48;14.27;;;5.80;;
74064;SDS011;62421;51.412;5.432;2023-04-03T04:17:13;9.38;;;5.13;;
74064;SDS011;62421;51.412;5.432;2023-04-03T04:19:39;12.15;;;6.35;;
74064;SDS011;62421;51.412;5.432;2023-04-03T04:22:05;14.70;;;6.03;;
74064;SDS011;62421;51.412;5.432;2023-04-03T04:24:30;7.55;;;4.82;;
74064;SDS011;62421;51.412;5.432;2023-04-03T04:26:56;10.30;;;5.73;;
74064;SDS011;62421;51.412;5.432;2023-04-03T04:29:21;9.60;;;5.60;;
74064;SDS011;62421;51.412;5.432;2023-04-03T04:31:46;8.27;;;5.20;;
74064;SDS011;62421;51.412;5.432;2023-04-03T04:34:12;10.97;;;5.03;;
74064;SDS011;62421;51.412;5.432;2023-04-03T04:36:40;8.98;;;4.45;;
74064;SDS011;62421;51.412;5.432;2023-04-03T04:39:05;12.23;;;4.90;;
74064;SDS011;62421;51.412;5.432;2023-04-03T04:41:31;9.87;;;4.87;;
74064;SDS011;62421;51.412;5.432;2023-04-03T04:43:57;13.43;;;5.20;;
74064;SDS011;62421;51.412;5.432;2023-04-03T04:46:22;10.93;;;4.65;;
74064;SDS011;62421;51.412;5.432;2023-04-03T04:48:48;8.73;;;4.00;;
74064;SDS011;62421;51.412;5.432;2023-04-03T04:51:13;11.00;;;4.70;;
74064;SDS011;62421;51.412;5.432;2023-04-03T04:53:40;12.02;;;4.55;;
74064;SDS011;62421;51.412;5.432;2023-04-03T04:56:05;8.10;;;4.40;;
74064;SDS011;62421;51.412;5.432;2023-04-03T04:58:31;10.70;;;4.27;;
74064;SDS011;62421;51.412;5.432;2023-04-03T05:01:03;6.80;;;3.30;;
74064;SDS011;62421;51.412;5.432;2023-04-03T05:03:31;9.10;;;4.18;;
74064;SDS011;62421;51.412;5.432;2023-04-03T05:05:56;10.02;;;4.38;;
74064;SDS011;62421;51.412;5.432;2023-04-03T05:08:22;9.10;;;4.80;;
74064;SDS011;62421;51.412;5.432;2023-04-03T05:10:47;12.50;;;3.60;;
74064;SDS011;62421;51.412;5.432;2023-04-03T05:13:13;10.57;;;4.63;;
74064;SDS011;62421;51.412;5.432;2023-04-03T05:15:39;11.13;;;4.23;;
74064;SDS011;62421;51.412;5.432;2023-04-03T05:18:04;11.73;;;3.50;;
74064;SDS011;62421;51.412;5.432;2023-04-03T05:20:30;8.10;;;4.07;;
74064;SDS011;62421;51.412;5.432;2023-04-03T05:22:56;8.07;;;3.60;;
74064;SDS011;62421;51.412;5.432;2023-04-03T05:25:21;8.53;;;3.77;;
74064;SDS011;62421;51.412;5.432;2023-04-03T05:27:47;9.87;;;3.63;;
74064;SDS011;62421;51.412;5.432;2023-04-03T05:30:12;9.63;;;4.03;;
74064;SDS011;62421;51.412;5.432;2023-04-03T05:32:38;9.93;;;4.10;;
74064;SDS011;62421;51.412;5.432;2023-04-03T05:35:04;6.93;;;4.07;;
74064;SDS011;62421;51.412;5.432;2023-04-03T05:37:30;10.27;;;4.13;;
74064;SDS011;62421;51.412;5.432;2023-04-03T05:39:56;7.05;;;3.72;;
74064;SDS011;62421;51.412;5.432;2023-04-03T05:42:21;6.90;;;3.27;;
74064;SDS011;62421;51.412;5.432;2023-04-03T05:44:47;6.87;;;3.40;;
74064;SDS011;62421;51.412;5.432;2023-04-03T05:47:12;9.03;;;3.90;;
74064;SDS011;62421;51.412;5.432;2023-04-03T05:49:38;8.27;;;3.77;;
74064;SDS011;62421;51.412;5.432;2023-04-03T05:52:06;10.30;;;3.85;;
74064;SDS011;62421;51.412;5.432;2023-04-03T05:54:41;6.95;;;3.50;;
74064;SDS011;62421;51.412;5.432;2023-04-03T05:57:08;7.40;;;3.60;;
74064;SDS011;62421;51.412;5.432;2023-04-03T05:59:33;8.57;;;3.70;;
74064;SDS011;62421;51.412;5.432;2023-04-03T06:01:58;6.50;;;3.73;;
74064;SDS011;62421;51.412;5.432;2023-04-03T06:04:23;8.07;;;3.63;;
74064;SDS011;62421;51.412;5.432;2023-04-03T06:06:50;10.43;;;3.10;;
74064;SDS011;62421;51.412;5.432;2023-04-03T06:09:16;8.75;;;3.45;;
74064;SDS011;62421;51.412;5.432;2023-04-03T06:11:42;7.13;;;3.13;;
74064;SDS011;62421;51.412;5.432;2023-04-03T06:14:09;7.63;;;3.30;;
74064;SDS011;62421;51.412;5.432;2023-04-03T06:16:35;8.05;;;3.42;;
74064;SDS011;62421;51.412;5.432;2023-04-03T06:19:01;6.80;;;2.83;;
74064;SDS011;62421;51.412;5.432;2023-04-03T06:21:27;7.25;;;3.25;;
74064;SDS011;62421;51.412;5.432;2023-04-03T06:23:52;5.60;;;3.13;;
74064;SDS011;62421;51.412;5.432;2023-04-03T06:26:18;8.00;;;2.87;;
74064;SDS011;62421;51.412;5.432;2023-04-03T06:28:43;9.63;;;2.97;;
74064;SDS011;62421;51.412;5.432;2023-04-03T06:31:08;13.77;;;3.83;;
74064;SDS011;62421;51.412;5.432;2023-04-03T06:33:34;8.97;;;3.17;;
74064;SDS011;62421;51.412;5.432;2023-04-03T06:35:59;6.70;;;2.75;;
74064;SDS011;62421;51.412;5.432;2023-04-03T06:38:28;9.03;;;3.27;;
74064;SDS011;62421;51.412;5.432;2023-04-03T06:40:53;10.87;;;3.60;;
74064;SDS011;62421;51.412;5.432;2023-04-03T06:43:19;11.98;;;2.90;;
74064;SDS011;62421;51.412;5.432;2023-04-03T06:45:45;12.63;;;3.50;;
74064;SDS011;62421;51.412;5.432;2023-04-03T06:48:11;7.85;;;3.30;;
74064;SDS011;62421;51.412;5.432;2023-04-03T06:50:37;7.90;;;3.00;;
74064;SDS011;62421;51.412;5.432;2023-04-03T06:53:03;7.63;;;3.03;;
74064;SDS011;62421;51.412;5.432;2023-04-03T06:55:29;10.50;;;2.83;;
74064;SDS011;62421;51.412;5.432;2023-04-03T06:57:54;5.17;;;3.07;;
74064;SDS011;62421;51.412;5.432;2023-04-03T07:00:20;6.37;;;3.10;;
74064;SDS011;62421;51.412;5.432;2023-04-03T07:02:46;9.23;;;2.67;;
74064;SDS011;62421;51.412;5.432;2023-04-03T07:05:12;8.38;;;3.28;;
74064;SDS011;62421;51.412;5.432;2023-04-03T07:07:38;7.00;;;2.20;;
74064;SDS011;62421;51.412;5.432;2023-04-03T07:10:04;6.53;;;2.60;;
74064;SDS011;62421;51.412;5.432;2023-04-03T07:12:30;7.30;;;2.30;;
74064;SDS011;62421;51.412;5.432;2023-04-03T07:14:55;9.55;;;2.70;;
74064;SDS011;62421;51.412;5.432;2023-04-03T07:17:21;10.27;;;3.47;;
74064;SDS011;62421;51.412;5.432;2023-04-03T07:19:46;7.83;;;2.80;;
74064;SDS011;62421;51.412;5.432;2023-04-03T07:22:12;8.77;;;2.07;;
74064;SDS011;62421;51.412;5.432;2023-04-03T07:24:38;9.20;;;2.47;;
74064;SDS011;62421;51.412;5.432;2023-04-03T07:27:03;7.83;;;2.93;;
74064;SDS011;62421;51.412;5.432;2023-04-03T07:29:28;12.27;;;3.50;;
74064;SDS011;62421;51.412;5.432;2023-04-03T07:31:54;13.65;;;2.88;;
74064;SDS011;62421;51.412;5.432;2023-04-03T07:34:21;12.43;;;3.40;;
74064;SDS011;62421;51.412;5.432;2023-04-03T07:36:46;10.60;;;3.33;;
74064;SDS011;62421;51.412;5.432;2023-04-03T07:39:12;9.03;;;3.03;;
74064;SDS011;62421;51.412;5.432;2023-04-03T07:41:37;8.23;;;2.55;;
74064;SDS011;62421;51.412;5.432;2023-04-03T07:44:03;10.95;;;3.17;;
74064;SDS011;62421;51.412;5.432;2023-04-03T07:46:29;11.30;;;3.30;;
74064;SDS011;62421;51.412;5.432;2023-04-03T07:48:55;9.80;;;2.53;;
74064;SDS011;62421;51.412;5.432;2023-04-03T07:51:20;6.13;;;2.43;;
74064;SDS011;62421;51.412;5.432;2023-04-03T07:53:45;13.13;;;2.90;;
74064;SDS011;62421;51.412;5.432;2023-04-03T07:56:11;8.48;;;4.55;;
74064;SDS011;62421;51.412;5.432;2023-04-03T07:58:37;8.03;;;2.93;;
74064;SDS011;62421;51.412;5.432;2023-04-03T08:01:03;5.68;;;2.42;;
74064;SDS011;62421;51.412;5.432;2023-04-03T08:03:28;10.33;;;2.90;;
74064;SDS011;62421;51.412;5.432;2023-04-03T08:05:54;6.60;;;2.07;;
74064;SDS011;62421;51.412;5.432;2023-04-03T08:08:22;19.33;;;3.08;;
74064;SDS011;62421;51.412;5.432;2023-04-03T08:10:49;6.53;;;3.28;;
74064;SDS011;62421;51.412;5.432;2023-04-03T08:13:17;10.45;;;2.95;;
74064;SDS011;62421;51.412;5.432;2023-04-03T08:15:42;9.38;;;2.42;;
74064;SDS011;62421;51.412;5.432;2023-04-03T08:18:08;7.33;;;2.10;;
74064;SDS011;62421;51.412;5.432;2023-04-03T08:20:34;8.80;;;2.30;;
74064;SDS011;62421;51.412;5.432;2023-04-03T08:23:00;7.83;;;2.30;;
74064;SDS011;62421;51.412;5.432;2023-04-03T08:25:25;10.13;;;2.60;;
74064;SDS011;62421;51.412;5.432;2023-04-03T08:27:51;4.45;;;1.83;;
74064;SDS011;62421;51.412;5.432;2023-04-03T08:30:16;6.83;;;2.77;;
74064;SDS011;62421;51.412;5.432;2023-04-03T08:32:42;8.27;;;2.70;;
74064;SDS011;62421;51.412;5.432;2023-04-03T08:35:09;9.77;;;2.38;;
74064;SDS011;62421;51.412;5.432;2023-04-03T08:37:35;6.88;;;2.28;;
74064;SDS011;62421;51.412;5.432;2023-04-03T08:40:02;6.60;;;2.13;;
74064;SDS011;62421;51.412;5.432;2023-04-03T08:45:19;5.93;;;1.77;;
74064;SDS011;62421;51.412;5.432;2023-04-03T08:47:47;6.75;;;1.67;;
74064;SDS011;62421;51.412;5.432;2023-04-03T08:50:23;5.30;;;1.93;;
74064;SDS011;62421;51.412;5.432;2023-04-03T08:52:58;6.18;;;1.52;;
74064;SDS011;62421;51.412;5.432;2023-04-03T08:58:02;4.43;;;1.80;;
74064;SDS011;62421;51.412;5.432;2023-04-03T09:00:46;3.90;;;1.90;;
74064;SDS011;62421;51.412;5.432;2023-04-03T09:03:15;4.10;;;1.90;;
74064;SDS011;62421;51.412;5.432;2023-04-03T09:08:21;10.17;;;2.00;;
74064;SDS011;62421;51.412;5.432;2023-04-03T09:13:52;6.18;;;2.40;;
74064;SDS011;62421;51.412;5.432;2023-04-03T09:19:27;4.35;;;1.33;;
74064;SDS011;62421;51.412;5.432;2023-04-03T09:22:17;3.45;;;1.30;;
74064;SDS011;62421;51.412;5.432;2023-04-03T09:25:15;3.58;;;1.50;;
74064;SDS011;62421;51.412;5.432;2023-04-03T09:27:45;4.85;;;1.30;;
74064;SDS011;62421;51.412;5.432;2023-04-03T09:30:18;4.57;;;1.90;;
74064;SDS011;62421;51.412;5.432;2023-04-03T09:32:50;3.00;;;1.25;;
74064;SDS011;62421;51.412;5.432;2023-04-03T09:37:55;4.88;;;1.80;;
74064;SDS011;62421;51.412;5.432;2023-04-03T09:42:50;3.93;;;1.50;;
74064;SDS011;62421;51.412;5.432;2023-04-03T09:45:30;6.82;;;1.88;;
74064;SDS011;62421;51.412;5.432;2023-04-03T09:50:37;5.28;;;1.38;;
74064;SDS011;62421;51.412;5.432;2023-04-03T09:53:12;5.60;;;1.95;;
74064;SDS011;62421;51.412;5.432;2023-04-03T09:56:03;3.08;;;1.42;;
74064;SDS011;62421;51.412;5.432;2023-04-03T09:58:45;3.28;;;1.33;;
74064;SDS011;62421;51.412;5.432;2023-04-03T10:01:56;5.23;;;1.50;;
74064;SDS011;62421;51.412;5.432;2023-04-03T10:04:12;4.40;;;1.30;;
74064;SDS011;62421;51.412;5.432;2023-04-03T10:06:46;2.03;;;1.30;;
74064;SDS011;62421;51.412;5.432;2023-04-03T10:09:18;5.40;;;1.90;;
74064;SDS011;62421;51.412;5.432;2023-04-03T10:11:58;4.22;;;1.60;;
74064;SDS011;62421;51.412;5.432;2023-04-03T10:14:29;3.17;;;1.30;;
74064;SDS011;62421;51.412;5.432;2023-04-03T10:17:02;4.05;;;1.00;;
74064;SDS011;62421;51.412;5.432;2023-04-03T10:40:55;6.45;;;1.50;;
74064;SDS011;62421;51.412;5.432;2023-04-03T10:46:35;4.07;;;1.70;;
74064;SDS011;62421;51.412;5.432;2023-04-03T10:58:16;5.20;;;1.53;;
74064;SDS011;62421;51.412;5.432;2023-04-03T11:00:49;4.03;;;1.38;;
74064;SDS011;62421;51.412;5.432;2023-04-03T11:03:27;2.28;;;1.30;;
74064;SDS011;62421;51.412;5.432;2023-04-03T11:05:58;3.58;;;1.30;;
74064;SDS011;62421;51.412;5.432;2023-04-03T11:11:03;2.83;;;1.30;;
74064;SDS011;62421;51.412;5.432;2023-04-03T11:13:34;5.65;;;1.98;;
74064;SDS011;62421;51.412;5.432;2023-04-03T11:16:05;2.35;;;1.50;;
74064;SDS011;62421;51.412;5.432;2023-04-03T11:18:40;3.70;;;1.85;;
74064;SDS011;62421;51.412;5.432;2023-04-03T11:21:34;3.67;;;1.67;;
74064;SDS011;62421;51.412;5.432;2023-04-03T11:24:05;5.60;;;1.43;;
74064;SDS011;62421;51.412;5.432;2023-04-03T11:26:39;2.60;;;1.50;;
74064;SDS011;62421;51.412;5.432;2023-04-03T11:29:12;4.00;;;1.40;;
74064;SDS011;62421;51.412;5.432;2023-04-03T11:34:34;3.80;;;1.80;;
74064;SDS011;62421;51.412;5.432;2023-04-03T11:37:10;2.83;;;1.60;;
74064;SDS011;62421;51.412;5.432;2023-04-03T11:39:40;3.35;;;1.35;;
74064;SDS011;62421;51.412;5.432;2023-04-03T11:42:20;3.33;;;1.50;;
74064;SDS011;62421;51.412;5.432;2023-04-03T11:48:01;3.60;;;1.20;;
74064;SDS011;62421;51.412;5.432;2023-04-03T11:50:30;3.27;;;1.70;;
74064;SDS011;62421;51.412;5.432;2023-04-03T11:55:46;3.42;;;1.70;;
74064;SDS011;62421;51.412;5.432;2023-04-03T11:58:26;6.18;;;1.70;;
74064;SDS011;62421;51.412;5.432;2023-04-03T12:00:57;3.75;;;1.80;;
74064;SDS011;62421;51.412;5.432;2023-04-03T12:14:20;3.40;;;1.30;;
74064;SDS011;62421;51.412;5.432;2023-04-03T12:24:35;3.10;;;1.23;;
74064;SDS011;62421;51.412;5.432;2023-04-03T12:29:52;3.77;;;1.50;;
74064;SDS011;62421;51.412;5.432;2023-04-03T12:35:28;3.72;;;1.98;;
74064;SDS011;62421;51.412;5.432;2023-04-03T12:38:10;4.72;;;2.13;;
74064;SDS011;62421;51.412;5.432;2023-04-03T12:43:33;3.27;;;1.53;;
74064;SDS011;62421;51.412;5.432;2023-04-03T12:46:03;5.30;;;1.33;;
74064;SDS011;62421;51.412;5.432;2023-04-03T12:48:30;2.92;;;1.10;;
74064;SDS011;62421;51.412;5.432;2023-04-03T12:50:58;5.05;;;1.40;;
74064;SDS011;62421;51.412;5.432;2023-04-03T12:53:26;4.80;;;1.50;;
74064;SDS011;62421;51.412;5.432;2023-04-03T12:55:55;3.40;;;1.47;;
74064;SDS011;62421;51.412;5.432;2023-04-03T12:58:22;3.70;;;1.80;;
74064;SDS011;62421;51.412;5.432;2023-04-03T13:01:26;4.75;;;1.75;;
74064;SDS011;62421;51.412;5.432;2023-04-03T13:03:57;3.17;;;1.52;;
74064;SDS011;62421;51.412;5.432;2023-04-03T13:06:23;3.95;;;1.63;;
74064;SDS011;62421;51.412;5.432;2023-04-03T13:08:56;4.07;;;1.70;;
74064;SDS011;62421;51.412;5.432;2023-04-03T13:11:24;3.67;;;1.52;;
74064;SDS011;62421;51.412;5.432;2023-04-03T13:14:14;5.32;;;1.55;;
74064;SDS011;62421;51.412;5.432;2023-04-03T13:16:41;3.83;;;1.90;;
74064;SDS011;62421;51.412;5.432;2023-04-03T13:19:14;3.77;;;1.60;;
74064;SDS011;62421;51.412;5.432;2023-04-03T13:21:41;3.92;;;1.40;;
74064;SDS011;62421;51.412;5.432;2023-04-03T13:24:09;5.68;;;1.90;;
74064;SDS011;62421;51.412;5.432;2023-04-03T13:26:35;4.33;;;1.90;;
74064;SDS011;62421;51.412;5.432;2023-04-03T13:29:02;4.05;;;1.70;;
74064;SDS011;62421;51.412;5.432;2023-04-03T13:31:30;4.65;;;1.83;;
74064;SDS011;62421;51.412;5.432;2023-04-03T13:34:15;5.22;;;1.55;;
74064;SDS011;62421;51.412;5.432;2023-04-03T13:36:44;5.50;;;1.87;;
74064;SDS011;62421;51.412;5.432;2023-04-03T13:39:24;5.95;;;1.80;;
74064;SDS011;62421;51.412;5.432;2023-04-03T13:41:52;3.67;;;2.05;;
74064;SDS011;62421;51.412;5.432;2023-04-03T13:50:00;3.03;;;1.60;;
74064;SDS011;62421;51.412;5.432;2023-04-03T13:55:59;4.47;;;1.58;;
74064;SDS011;62421;51.412;5.432;2023-04-03T13:58:28;4.25;;;1.75;;
74064;SDS011;62421;51.412;5.432;2023-04-03T14:03:40;3.93;;;1.87;;
74064;SDS011;62421;51.412;5.432;2023-04-03T14:06:12;4.07;;;1.55;;
74064;SDS011;62421;51.412;5.432;2023-04-03T14:08:40;6.47;;;2.10;;
74064;SDS011;62421;51.412;5.432;2023-04-03T14:11:08;3.60;;;1.73;;
74064;SDS011;62421;51.412;5.432;2023-04-03T14:13:42;4.28;;;1.50;;
74064;SDS011;62421;51.412;5.432;2023-04-03T14:16:11;5.77;;;2.03;;
74064;SDS011;62421;51.412;5.432;2023-04-03T14:18:39;6.25;;;1.75;;
74064;SDS011;62421;51.412;5.432;2023-04-03T14:21:05;4.13;;;1.40;;
74064;SDS011;62421;51.412;5.432;2023-04-03T14:23:31;4.50;;;1.73;;
74064;SDS011;62421;51.412;5.432;2023-04-03T14:25:57;3.80;;;1.77;;
74064;SDS011;62421;51.412;5.432;2023-04-03T14:28:25;6.97;;;1.92;;
74064;SDS011;62421;51.412;5.432;2023-04-03T14:30:50;7.53;;;1.90;;
74064;SDS011;62421;51.412;5.432;2023-04-03T14:33:18;4.47;;;1.50;;
74064;SDS011;62421;51.412;5.432;2023-04-03T14:35:46;5.03;;;1.63;;
74064;SDS011;62421;51.412;5.432;2023-04-03T14:40:43;5.72;;;2.28;;
74064;SDS011;62421;51.412;5.432;2023-04-03T14:43:09;7.53;;;1.60;;
74064;SDS011;62421;51.412;5.432;2023-04-03T14:45:37;4.90;;;1.73;;
74064;SDS011;62421;51.412;5.432;2023-04-03T14:48:03;5.50;;;1.90;;
74064;SDS011;62421;51.412;5.432;2023-04-03T14:50:28;8.87;;;1.50;;
74064;SDS011;62421;51.412;5.432;2023-04-03T14:52:55;4.17;;;1.50;;
74064;SDS011;62421;51.412;5.432;2023-04-03T14:55:23;4.53;;;1.90;;
74064;SDS011;62421;51.412;5.432;2023-04-03T14:57:49;4.80;;;1.40;;
74064;SDS011;62421;51.412;5.432;2023-04-03T15:00:17;4.70;;;1.70;;
74064;SDS011;62421;51.412;5.432;2023-04-03T15:02:45;5.10;;;2.20;;
74064;SDS011;62421;51.412;5.432;2023-04-03T15:05:12;6.60;;;2.33;;
74064;SDS011;62421;51.412;5.432;2023-04-03T15:07:43;8.55;;;1.90;;
74064;SDS011;62421;51.412;5.432;2023-04-03T15:10:18;6.97;;;1.77;;
74064;SDS011;62421;51.412;5.432;2023-04-03T15:12:48;4.20;;;1.97;;
74064;SDS011;62421;51.412;5.432;2023-04-03T15:15:15;5.45;;;2.42;;
74064;SDS011;62421;51.412;5.432;2023-04-03T15:17:42;6.30;;;1.83;;
74064;SDS011;62421;51.412;5.432;2023-04-03T15:20:13;4.22;;;1.73;;
74064;SDS011;62421;51.412;5.432;2023-04-03T15:22:43;8.00;;;1.90;;
74064;SDS011;62421;51.412;5.432;2023-04-03T15:25:09;4.80;;;1.60;;
74064;SDS011;62421;51.412;5.432;2023-04-03T15:27:35;4.97;;;1.83;;
74064;SDS011;62421;51.412;5.432;2023-04-03T15:30:03;5.25;;;1.90;;
74064;SDS011;62421;51.412;5.432;2023-04-03T15:32:30;3.47;;;1.67;;
74064;SDS011;62421;51.412;5.432;2023-04-03T15:34:55;5.57;;;1.67;;
74064;SDS011;62421;51.412;5.432;2023-04-03T15:37:21;5.13;;;1.70;;
74064;SDS011;62421;51.412;5.432;2023-04-03T15:39:46;6.00;;;2.37;;
74064;SDS011;62421;51.412;5.432;2023-04-03T15:42:11;6.10;;;2.60;;
74064;SDS011;62421;51.412;5.432;2023-04-03T15:44:37;7.20;;;2.03;;
74064;SDS011;62421;51.412;5.432;2023-04-03T15:47:03;6.87;;;2.10;;
74064;SDS011;62421;51.412;5.432;2023-04-03T15:49:29;5.40;;;1.85;;
74064;SDS011;62421;51.412;5.432;2023-04-03T15:51:55;5.63;;;1.90;;
74064;SDS011;62421;51.412;5.432;2023-04-03T15:54:21;8.10;;;1.98;;
74064;SDS011;62421;51.412;5.432;2023-04-03T15:56:48;5.57;;;1.93;;
74064;SDS011;62421;51.412;5.432;2023-04-03T15:59:14;5.28;;;2.15;;
74064;SDS011;62421;51.412;5.432;2023-04-03T16:01:40;5.93;;;2.10;;
74064;SDS011;62421;51.412;5.432;2023-04-03T16:04:07;6.50;;;2.15;;
74064;SDS011;62421;51.412;5.432;2023-04-03T16:06:33;5.97;;;2.23;;
74064;SDS011;62421;51.412;5.432;2023-04-03T16:08:59;4.13;;;1.88;;
74064;SDS011;62421;51.412;5.432;2023-04-03T16:11:25;6.53;;;2.17;;
74064;SDS011;62421;51.412;5.432;2023-04-03T16:13:52;5.00;;;1.70;;
74064;SDS011;62421;51.412;5.432;2023-04-03T16:16:18;5.05;;;2.03;;
74064;SDS011;62421;51.412;5.432;2023-04-03T16:18:44;4.60;;;1.87;;
74064;SDS011;62421;51.412;5.432;2023-04-03T16:21:12;4.28;;;1.58;;
74064;SDS011;62421;51.412;5.432;2023-04-03T16:23:38;5.65;;;2.17;;
74064;SDS011;62421;51.412;5.432;2023-04-03T16:26:05;8.88;;;1.58;;
74064;SDS011;62421;51.412;5.432;2023-04-03T16:28:30;7.93;;;2.07;;
74064;SDS011;62421;51.412;5.432;2023-04-03T16:30:55;3.53;;;1.73;;
74064;SDS011;62421;51.412;5.432;2023-04-03T16:33:21;6.75;;;1.83;;
74064;SDS011;62421;51.412;5.432;2023-04-03T16:35:47;4.63;;;1.67;;